Anemona — 3EUT9 — position and weather

sailwx.info

Track history (hours):
 
Tides and Currents Weather Stations Pressure Air Temp Water Temp Dewpoint Dewpoint Depression Visibility Wind Speed Wind Dir Waves Ship Positions

Anemona

Last reported at 2015-Mar-06 14:06 UTC. Time now 2015-Mar-28 11:03 UTC.
Position N 22°05' E 113°52'.
Warning: this ship's position is 21 days out of date.

Length 192 m; draft 5 m.

Type: Cargo ship. MMSI: 355664000.

Date/timePositionNaut miles runAvg speedWind from/ knotsBaromVisibWave heightAir tempDewpointWater temp
2015-Mar-06 14:06N 22°05' E 113°52'0 0.0
2015-Mar-06 09:18N 22°05' E 113°52'0 0.0
2015-Mar-06 06:18N 22°05' E 113°52'3 3.3
2015-Mar-06 05:27N 22°07' E 113°51'910.0
2015-Mar-06 04:33N 22°16' E 113°50'10 9.6
2015-Mar-06 03:33N 22°25' E 113°53'5 0.1
2015-Mar-04 01:33N 22°30' E 113°50'0 0.0
2015-Mar-04 00:28N 22°30' E 113°50'0 0.0
2015-Mar-03 09:27N 22°30' E 113°50'0 0.0
2015-Mar-03 08:27N 22°30' E 113°50'0 0.0
2015-Mar-03 07:33N 22°30' E 113°50'0 0.0
2015-Mar-03 06:33N 22°30' E 113°50'0 0.0
2015-Mar-03 05:21N 22°30' E 113°50'0 0.0
2015-Mar-03 03:33N 22°30' E 113°50'0 0.0
2015-Mar-03 02:33N 22°30' E 113°50'0 0.0
2015-Mar-03 01:33N 22°30' E 113°50'0 0.0
2015-Mar-02 01:05N 22°30' E 113°50'0 0.0
2015-Feb-28 09:29N 22°30' E 113°50'0 0.0
2015-Feb-28 08:29N 22°30' E 113°50'0 0.0
2015-Feb-28 07:05N 22°30' E 113°50'0 0.0
2015-Feb-28 06:29N 22°30' E 113°50'0 0.0
2015-Feb-26 08:23N 22°30' E 113°50'0 0.0
2015-Feb-26 07:08N 22°30' E 113°50'0 0.0
2015-Feb-26 06:26N 22°30' E 113°50'0 0.0
2015-Feb-26 05:32N 22°30' E 113°50'0 0.0
2015-Feb-26 04:20N 22°30' E 113°50'4 0.2
2015-Feb-25 05:33N 22°27' E 113°53'10 9.5
2015-Feb-25 04:27N 22°17' E 113°50'1011.6
2015-Feb-25 03:33N 22°07' E 113°51'2 1.2
2015-Feb-25 01:29N 22°04' E 113°52'0 0.0
2015-Feb-25 00:23N 22°04' E 113°52'0 0.0
2015-Feb-24 22:17N 22°04' E 113°52'0 0.0
2015-Feb-24 21:17N 22°04' E 113°52'0 0.0
2015-Feb-24 16:17N 22°04' E 113°52'  
Track history (hours):
 
Tides and Currents Weather Stations Pressure Air Temp Water Temp Dewpoint Dewpoint Depression Visibility Wind Speed Wind Dir Waves Ship Positions

Anemona

Last reported at 2015-Mar-06 14:06 UTC. Time now 2015-Mar-28 11:03 UTC.
Position N 22°05' E 113°52'.
Warning: this ship's position is 21 days out of date.

Length 192 m; draft 5 m.

Type: Cargo ship. MMSI: 355664000.

Date/timePositionNaut miles runAvg speedWind from/ knotsBaromVisibWave heightAir tempDewpointWater temp
2015-Mar-06 14:06N 22°05' E 113°52'0 0.0
2015-Mar-06 09:18N 22°05' E 113°52'0 0.0
2015-Mar-06 06:18N 22°05' E 113°52'3 3.3
2015-Mar-06 05:27N 22°07' E 113°51'910.0
2015-Mar-06 04:33N 22°16' E 113°50'10 9.6
2015-Mar-06 03:33N 22°25' E 113°53'5 0.1
2015-Mar-04 01:33N 22°30' E 113°50'0 0.0
2015-Mar-04 00:28N 22°30' E 113°50'0 0.0
2015-Mar-03 09:27N 22°30' E 113°50'0 0.0
2015-Mar-03 08:27N 22°30' E 113°50'0 0.0
2015-Mar-03 07:33N 22°30' E 113°50'0 0.0
2015-Mar-03 06:33N 22°30' E 113°50'0 0.0
2015-Mar-03 05:21N 22°30' E 113°50'0 0.0
2015-Mar-03 03:33N 22°30' E 113°50'0 0.0
2015-Mar-03 02:33N 22°30' E 113°50'0 0.0
2015-Mar-03 01:33N 22°30' E 113°50'0 0.0
2015-Mar-02 01:05N 22°30' E 113°50'0 0.0
2015-Feb-28 09:29N 22°30' E 113°50'0 0.0
2015-Feb-28 08:29N 22°30' E 113°50'0 0.0
2015-Feb-28 07:05N 22°30' E 113°50'0 0.0
2015-Feb-28 06:29N 22°30' E 113°50'0 0.0
2015-Feb-26 08:23N 22°30' E 113°50'0 0.0
2015-Feb-26 07:08N 22°30' E 113°50'0 0.0
2015-Feb-26 06:26N 22°30' E 113°50'0 0.0
2015-Feb-26 05:32N 22°30' E 113°50'0 0.0
2015-Feb-26 04:20N 22°30' E 113°50'4 0.2
2015-Feb-25 05:33N 22°27' E 113°53'10 9.5
2015-Feb-25 04:27N 22°17' E 113°50'1011.6
2015-Feb-25 03:33N 22°07' E 113°51'2 1.2
2015-Feb-25 01:29N 22°04' E 113°52'0 0.0
2015-Feb-25 00:23N 22°04' E 113°52'0 0.0
2015-Feb-24 22:17N 22°04' E 113°52'0 0.0
2015-Feb-24 21:17N 22°04' E 113°52'0 0.0
2015-Feb-24 16:17N 22°04' E 113°52'  

Dump ship's entire track history